createdAt,value
2018-11-07T00:00:23.469Z,24.97
2018-11-07T00:02:51.683Z,24.94
2018-11-07T00:05:20.328Z,24.92
2018-11-07T00:07:49.183Z,24.89
2018-11-07T00:10:17.203Z,24.87
2018-11-07T00:12:45.407Z,24.86
2018-11-07T00:15:14.717Z,24.83
2018-11-07T00:17:43.287Z,24.80
2018-11-07T00:20:12.301Z,24.77
2018-11-07T00:22:40.600Z,24.75
2018-11-07T00:25:09.878Z,24.74
2018-11-07T00:27:38.112Z,24.72
2018-11-07T00:30:06.818Z,24.69
2018-11-07T00:32:34.834Z,24.67
2018-11-07T00:35:02.969Z,24.63
2018-11-07T00:37:32.106Z,24.63
2018-11-07T00:40:00.193Z,24.60
2018-11-07T00:42:28.688Z,24.57
2018-11-07T00:44:56.733Z,24.56
2018-11-07T00:47:24.934Z,24.54
2018-11-07T00:49:53.002Z,24.52
2018-11-07T00:52:21.093Z,24.50
2018-11-07T00:54:49.250Z,24.46
2018-11-07T00:57:17.382Z,24.46
2018-11-07T00:59:45.479Z,24.45
2018-11-07T01:02:13.594Z,24.42
2018-11-07T01:04:41.693Z,24.41
2018-11-07T01:07:09.767Z,24.38
2018-11-07T01:09:37.914Z,24.37
2018-11-07T01:12:05.985Z,24.36
2018-11-07T01:14:34.093Z,24.33
2018-11-07T01:17:02.198Z,24.30
2018-11-07T01:19:30.286Z,24.30
2018-11-07T01:21:58.351Z,24.28
2018-11-07T01:24:26.483Z,24.26
2018-11-07T01:26:55.341Z,24.23
2018-11-07T01:29:23.405Z,24.22
2018-11-07T01:31:51.481Z,24.20
2018-11-07T01:34:19.567Z,24.19
2018-11-07T01:36:47.648Z,24.18
2018-11-07T01:39:15.703Z,24.16
2018-11-07T01:41:43.833Z,24.14
2018-11-07T01:44:11.869Z,24.13
2018-11-07T01:46:40.070Z,24.10
2018-11-07T01:49:08.182Z,24.09
2018-11-07T01:51:36.236Z,24.08
2018-11-07T01:54:04.306Z,24.07
2018-11-07T01:56:32.368Z,24.05
2018-11-07T01:59:00.444Z,24.03
2018-11-07T02:01:28.628Z,24.02
2018-11-07T02:03:57.478Z,24.00
2018-11-07T02:06:25.546Z,23.98
2018-11-07T02:08:53.702Z,23.97
2018-11-07T02:11:21.793Z,23.95
2018-11-07T02:13:49.848Z,23.94
2018-11-07T02:16:18.023Z,23.93
2018-11-07T02:18:46.112Z,23.91
2018-11-07T02:21:14.194Z,23.89
2018-11-07T02:23:42.250Z,23.88
2018-11-07T02:26:10.448Z,23.87
2018-11-07T02:28:38.515Z,23.86
2018-11-07T02:31:06.666Z,23.84
2018-11-07T02:33:34.729Z,23.84
2018-11-07T02:36:02.890Z,23.82
2018-11-07T02:38:31.054Z,23.80
2018-11-07T02:40:59.154Z,23.78
2018-11-07T02:43:27.379Z,23.78
2018-11-07T02:45:55.482Z,23.75
2018-11-07T02:48:23.610Z,23.73
2018-11-07T02:50:51.705Z,23.68
2018-11-07T02:53:19.948Z,23.71
2018-11-07T02:55:47.989Z,23.70
2018-11-07T02:58:16.090Z,23.69
2018-11-07T03:00:44.289Z,23.67
2018-11-07T03:03:12.419Z,23.66
2018-11-07T03:05:40.523Z,23.64
2018-11-07T03:08:08.693Z,23.63
2018-11-07T03:10:36.957Z,23.61
2018-11-07T03:13:05.012Z,23.59
2018-11-07T03:15:33.225Z,23.59
2018-11-07T03:18:01.354Z,23.58
2018-11-07T03:20:29.455Z,23.57
2018-11-07T03:22:57.733Z,23.56
2018-11-07T03:25:25.886Z,23.55
2018-11-07T03:27:54.110Z,23.54
2018-11-07T03:30:22.229Z,23.50
2018-11-07T03:32:50.326Z,23.49
2018-11-07T03:35:23.662Z,23.49
2018-11-07T03:37:51.888Z,23.47
2018-11-07T03:40:19.981Z,23.45
2018-11-07T03:42:48.130Z,23.44
2018-11-07T03:45:16.217Z,23.43
2018-11-07T03:47:44.410Z,23.42
2018-11-07T03:50:12.630Z,23.40
2018-11-07T03:52:40.970Z,23.40
2018-11-07T03:55:09.121Z,23.38
2018-11-07T03:57:37.534Z,23.34
2018-11-07T04:00:07.381Z,23.35
2018-11-07T04:02:36.110Z,23.33
2018-11-07T04:05:04.697Z,23.32
2018-11-07T04:07:32.803Z,23.31
2018-11-07T04:10:00.889Z,23.30
2018-11-07T04:12:28.997Z,23.28
2018-11-07T04:14:57.129Z,23.26
2018-11-07T04:17:25.384Z,23.26
2018-11-07T04:19:53.477Z,23.24
2018-11-07T04:22:21.606Z,23.23
2018-11-07T04:24:49.730Z,23.22
2018-11-07T04:27:17.847Z,23.21
2018-11-07T04:29:45.927Z,23.19
2018-11-07T04:32:14.022Z,23.19
2018-11-07T04:34:42.218Z,23.17
2018-11-07T04:37:10.332Z,23.16
2018-11-07T04:39:38.430Z,23.16
2018-11-07T04:42:06.566Z,23.14
2018-11-07T04:44:34.666Z,23.13
2018-11-07T04:47:02.785Z,23.11
2018-11-07T04:49:30.880Z,23.11
2018-11-07T04:51:59.031Z,23.09
2018-11-07T04:54:27.124Z,23.07
2018-11-07T04:56:55.266Z,23.06
2018-11-07T04:59:23.455Z,23.06
2018-11-07T05:01:51.659Z,23.06
2018-11-07T05:04:19.846Z,23.04
2018-11-07T05:06:48.031Z,23.04
2018-11-07T05:09:16.332Z,23.04
2018-11-07T05:11:44.514Z,23.06
2018-11-07T05:14:12.645Z,23.03
2018-11-07T05:16:40.836Z,23.03
2018-11-07T05:19:08.982Z,23.01
2018-11-07T05:21:37.131Z,23.00
2018-11-07T05:24:05.664Z,23.00
2018-11-07T05:26:33.777Z,22.98
2018-11-07T05:29:01.879Z,22.98
2018-11-07T05:31:30.013Z,22.95
2018-11-07T05:33:58.249Z,22.95
2018-11-07T05:36:26.337Z,22.94
2018-11-07T05:38:54.455Z,22.92
2018-11-07T05:41:22.693Z,22.92
2018-11-07T05:43:50.779Z,22.92
2018-11-07T05:46:18.927Z,22.91
2018-11-07T05:48:47.076Z,22.89
2018-11-07T05:51:15.249Z,22.90
2018-11-07T05:53:43.370Z,22.88
2018-11-07T05:56:11.449Z,22.88
2018-11-07T05:58:39.546Z,22.87
2018-11-07T06:01:07.652Z,22.85
2018-11-07T06:03:35.760Z,22.85
2018-11-07T06:06:03.852Z,22.84
2018-11-07T06:08:31.995Z,22.82
2018-11-07T06:11:00.106Z,22.82
2018-11-07T06:13:28.219Z,22.80
2018-11-07T06:15:56.348Z,22.80
2018-11-07T06:18:24.442Z,22.79
2018-11-07T06:20:52.593Z,22.78
2018-11-07T06:23:20.695Z,22.76
2018-11-07T06:25:48.805Z,22.75
2018-11-07T06:28:16.988Z,22.74
2018-11-07T06:30:45.834Z,22.73
2018-11-07T06:33:14.113Z,22.72
2018-11-07T06:35:42.252Z,22.70
2018-11-07T06:38:10.418Z,22.70
2018-11-07T06:40:38.561Z,22.70
2018-11-07T06:43:06.672Z,22.69
2018-11-07T06:45:34.770Z,22.68
2018-11-07T06:48:02.899Z,22.68
2018-11-07T06:50:31.030Z,22.67
2018-11-07T06:52:59.197Z,22.66
2018-11-07T06:55:27.333Z,22.65
2018-11-07T06:57:55.500Z,22.63
2018-11-07T07:00:23.668Z,22.63
2018-11-07T07:02:51.765Z,22.62
2018-11-07T07:05:19.864Z,22.62
2018-11-07T07:07:48.241Z,22.62
2018-11-07T07:10:17.529Z,22.61
2018-11-07T07:12:45.614Z,22.60
2018-11-07T07:15:14.897Z,22.59
2018-11-07T07:17:43.017Z,22.59
2018-11-07T07:20:15.485Z,22.59
2018-11-07T07:22:44.131Z,22.59
2018-11-07T07:25:13.029Z,22.59
2018-11-07T07:27:41.801Z,22.59
2018-11-07T07:30:13.115Z,22.59
2018-11-07T07:32:42.041Z,22.59
2018-11-07T07:35:10.148Z,22.60
2018-11-07T07:37:38.278Z,22.60
2018-11-07T07:40:08.642Z,22.61
2018-11-07T07:42:36.982Z,22.63
2018-11-07T07:45:06.717Z,22.64
2018-11-07T07:47:34.827Z,22.65
2018-11-07T07:50:02.995Z,22.66
2018-11-07T07:52:31.058Z,22.68
2018-11-07T07:54:59.288Z,22.69
2018-11-07T07:57:27.438Z,22.71
2018-11-07T07:59:55.553Z,22.71
2018-11-07T08:02:23.695Z,22.71
2018-11-07T08:04:52.391Z,22.73
2018-11-07T08:07:20.562Z,22.90
2018-11-07T08:09:48.716Z,22.94
2018-11-07T08:12:16.831Z,22.91
2018-11-07T08:14:44.970Z,22.87
2018-11-07T08:17:13.129Z,22.86
2018-11-07T08:19:41.246Z,22.86
2018-11-07T08:22:09.333Z,22.88
2018-11-07T08:24:37.431Z,22.89
2018-11-07T08:27:05.639Z,22.89
2018-11-07T08:29:33.794Z,22.90
2018-11-07T08:32:01.951Z,22.91
2018-11-07T08:34:30.137Z,22.92
2018-11-07T08:36:58.242Z,22.93
2018-11-07T08:39:26.347Z,22.94
2018-11-07T08:41:54.450Z,22.95
2018-11-07T08:44:22.550Z,22.98
2018-11-07T08:46:50.646Z,22.99
2018-11-07T08:49:18.795Z,23.00
2018-11-07T08:51:46.930Z,23.02
2018-11-07T08:54:15.046Z,23.03
2018-11-07T08:56:43.162Z,23.05
2018-11-07T08:59:11.258Z,23.06
2018-11-07T09:01:39.392Z,23.08
2018-11-07T09:04:07.476Z,23.09
2018-11-07T09:06:35.614Z,23.11
2018-11-07T09:09:03.772Z,23.12
2018-11-07T09:11:31.901Z,23.14
2018-11-07T09:14:00.079Z,23.16
2018-11-07T09:16:28.285Z,23.17
2018-11-07T09:18:56.400Z,23.17
2018-11-07T09:21:24.505Z,23.21
2018-11-07T09:23:52.624Z,23.22
2018-11-07T09:26:21.496Z,23.23
2018-11-07T09:28:50.393Z,23.25
2018-11-07T09:31:18.487Z,23.27
2018-11-07T09:33:46.599Z,23.28
2018-11-07T09:36:14.705Z,23.31
2018-11-07T09:38:42.787Z,23.32
2018-11-07T09:41:10.889Z,23.33
2018-11-07T09:43:39.014Z,23.37
2018-11-07T09:46:07.154Z,23.38
2018-11-07T09:48:35.246Z,23.39
2018-11-07T09:51:03.344Z,23.41
2018-11-07T09:53:31.428Z,23.42
2018-11-07T09:58:06.964Z,23.43
2018-11-07T10:00:35.063Z,23.43
2018-11-07T10:03:03.225Z,23.42
2018-11-07T10:05:31.416Z,23.43
2018-11-07T10:07:59.468Z,23.44
2018-11-07T10:10:27.586Z,23.45
2018-11-07T10:12:55.684Z,23.48
2018-11-07T10:15:23.827Z,23.48
2018-11-07T10:17:51.930Z,23.51
2018-11-07T10:20:22.529Z,23.52
2018-11-07T10:22:50.890Z,23.53
2018-11-07T10:25:19.187Z,23.53
2018-11-07T10:27:47.532Z,23.53
2018-11-07T10:30:16.929Z,23.54
2018-11-07T10:32:45.850Z,23.54
2018-11-07T10:35:13.982Z,23.55
2018-11-07T10:37:42.133Z,23.56
2018-11-07T10:40:12.431Z,23.57
2018-11-07T10:42:40.571Z,23.56
2018-11-07T10:45:09.082Z,23.57
2018-11-07T10:47:37.204Z,23.55
2018-11-07T10:50:06.530Z,23.57
2018-11-07T10:52:34.615Z,23.57
2018-11-07T10:55:03.422Z,23.57
2018-11-07T10:57:31.664Z,23.58
2018-11-07T10:59:59.785Z,23.58
2018-11-07T11:02:33.230Z,23.58
2018-11-07T11:05:01.374Z,23.59
2018-11-07T11:07:29.550Z,23.58
2018-11-07T11:09:57.676Z,23.59
2018-11-07T11:12:25.801Z,23.60
2018-11-07T11:14:53.958Z,23.60
2018-11-07T11:17:22.091Z,23.59
2018-11-07T11:19:50.183Z,23.61
2018-11-07T11:22:18.291Z,23.63
2018-11-07T11:24:46.430Z,23.63
2018-11-07T11:27:14.565Z,23.64
2018-11-07T11:29:42.744Z,23.64
2018-11-07T11:32:10.893Z,23.65
2018-11-07T11:34:39.073Z,23.67
2018-11-07T11:37:07.201Z,23.68
2018-11-07T11:39:35.285Z,23.70
2018-11-07T11:42:03.493Z,23.71
2018-11-07T11:44:31.584Z,23.72
2018-11-07T11:46:59.687Z,23.70
2018-11-07T11:49:27.867Z,23.69
2018-11-07T11:51:55.966Z,23.68
2018-11-07T11:54:24.173Z,23.66
2018-11-07T11:56:52.282Z,23.66
2018-11-07T11:59:20.654Z,23.68
2018-11-07T12:01:48.489Z,23.69
2018-11-07T12:04:16.606Z,23.69
2018-11-07T12:06:44.689Z,23.69
2018-11-07T12:09:12.827Z,23.70
2018-11-07T12:11:41.002Z,23.70
2018-11-07T12:14:10.054Z,23.72
2018-11-07T12:16:38.179Z,23.72
2018-11-07T12:19:06.374Z,23.71
2018-11-07T12:21:34.462Z,23.73
2018-11-07T12:24:02.600Z,23.73
2018-11-07T12:26:30.754Z,23.73
2018-11-07T12:28:58.871Z,23.74
2018-11-07T12:31:26.959Z,23.75
2018-11-07T12:33:55.054Z,23.75
2018-11-07T12:36:23.209Z,23.76
2018-11-07T12:38:51.282Z,23.75
2018-11-07T12:41:19.380Z,23.76
2018-11-07T12:43:47.503Z,23.76
2018-11-07T12:46:15.594Z,23.76
2018-11-07T12:48:43.775Z,23.78
2018-11-07T12:51:12.914Z,23.77
2018-11-07T12:53:41.106Z,23.78
2018-11-07T12:56:09.202Z,23.79
2018-11-07T12:58:37.346Z,23.78
2018-11-07T13:01:05.629Z,23.78
2018-11-07T13:03:33.834Z,23.78
2018-11-07T13:06:01.946Z,23.78
2018-11-07T13:08:30.079Z,23.77
2018-11-07T13:10:58.177Z,23.75
2018-11-07T13:13:26.281Z,23.77
2018-11-07T13:15:54.375Z,23.75
2018-11-07T13:18:22.493Z,23.75
2018-11-07T13:20:50.606Z,23.75
2018-11-07T13:23:18.726Z,23.76
2018-11-07T13:25:46.825Z,23.74
2018-11-07T13:28:15.358Z,23.74
2018-11-07T13:30:43.439Z,23.72
2018-11-07T13:33:11.553Z,23.73
2018-11-07T13:35:39.784Z,23.72
2018-11-07T13:38:08.207Z,23.72
2018-11-07T13:40:36.131Z,23.72
2018-11-07T13:43:04.265Z,23.71
2018-11-07T13:45:32.447Z,23.71
2018-11-07T13:48:00.546Z,23.68
2018-11-07T13:50:28.633Z,23.69
2018-11-07T13:52:56.808Z,23.67
2018-11-07T13:55:24.886Z,23.67
2018-11-07T13:57:53.246Z,23.67
2018-11-07T14:00:22.447Z,23.66
2018-11-07T14:02:51.246Z,23.64
2018-11-07T14:05:19.410Z,23.65
2018-11-07T14:07:48.035Z,23.65
2018-11-07T14:10:21.282Z,23.64
2018-11-07T14:12:49.630Z,23.62
2018-11-07T14:15:18.660Z,23.62
2018-11-07T14:17:46.841Z,23.61
2018-11-07T14:20:14.969Z,23.61
2018-11-07T14:22:43.169Z,23.60
2018-11-07T14:25:11.823Z,23.59
2018-11-07T14:27:40.322Z,23.60
2018-11-07T14:30:11.270Z,23.58
2018-11-07T14:32:41.126Z,23.58
2018-11-07T14:35:09.215Z,23.58
2018-11-07T14:37:37.344Z,23.57
2018-11-07T14:40:05.831Z,23.56
2018-11-07T14:42:33.955Z,23.56
2018-11-07T14:45:02.063Z,23.55
2018-11-07T14:47:30.183Z,23.55
2018-11-07T14:49:58.285Z,23.54
2018-11-07T14:52:26.377Z,23.55
2018-11-07T14:54:54.458Z,23.53
2018-11-07T14:57:22.582Z,23.52
2018-11-07T15:04:54.282Z,23.44
2018-11-07T15:07:22.440Z,23.42
2018-11-07T15:09:50.665Z,23.41
2018-11-07T15:12:18.754Z,23.41
2018-11-07T15:14:46.862Z,23.42
2018-11-07T15:17:14.948Z,23.40
2018-11-07T15:19:43.070Z,23.42
2018-11-07T15:22:11.205Z,23.41
2018-11-07T15:24:39.330Z,23.41
2018-11-07T15:27:07.773Z,23.40
2018-11-07T15:29:35.905Z,23.42
2018-11-07T15:32:05.909Z,23.41
2018-11-07T15:34:34.010Z,23.40
2018-11-07T15:37:02.166Z,23.40
2018-11-07T15:39:30.268Z,23.40
2018-11-07T15:41:58.387Z,23.39
2018-11-07T15:44:26.612Z,23.38
2018-11-07T15:48:09.811Z,23.38
2018-11-07T15:50:43.377Z,23.37
2018-11-07T15:53:11.519Z,23.35
2018-11-07T15:55:39.649Z,23.34
2018-11-07T15:58:07.953Z,23.34
2018-11-07T16:00:36.059Z,23.33
2018-11-07T16:03:04.562Z,23.33
2018-11-07T16:05:32.746Z,23.34
2018-11-07T16:08:05.749Z,23.34
2018-11-07T16:10:33.950Z,23.34
2018-11-07T16:13:02.145Z,23.33
2018-11-07T16:15:31.400Z,23.34
2018-11-07T16:17:59.569Z,23.34
2018-11-07T16:20:27.776Z,23.33
2018-11-07T16:22:55.956Z,23.33
2018-11-07T16:25:24.010Z,23.32
2018-11-07T16:27:52.077Z,23.32
2018-11-07T16:30:20.801Z,23.32
2018-11-07T16:32:48.918Z,23.31
2018-11-07T16:35:17.089Z,23.31
2018-11-07T16:42:41.903Z,23.30
2018-11-07T16:47:38.021Z,23.30
2018-11-07T16:50:07.135Z,23.29
2018-11-07T16:52:35.295Z,23.28
2018-11-07T16:55:03.390Z,23.28
2018-11-07T16:57:31.568Z,23.27
2018-11-07T17:00:00.206Z,23.27
2018-11-07T17:02:28.339Z,23.28
2018-11-07T17:04:56.527Z,23.26
2018-11-07T17:07:24.690Z,23.27
2018-11-07T17:09:52.819Z,23.26
2018-11-07T17:12:20.961Z,23.25
2018-11-07T17:14:49.081Z,23.24
2018-11-07T17:17:17.250Z,23.24
2018-11-07T17:19:45.526Z,23.23
2018-11-07T17:22:13.637Z,23.24
2018-11-07T17:24:41.789Z,23.23
2018-11-07T17:27:09.864Z,23.22
2018-11-07T17:29:37.964Z,23.23
2018-11-07T17:32:06.121Z,23.22
2018-11-07T17:34:34.359Z,23.22
2018-11-07T17:37:02.597Z,23.21
2018-11-07T17:39:30.700Z,23.21
2018-11-07T17:41:58.816Z,23.19
2018-11-07T17:44:26.946Z,23.18
2018-11-07T17:46:55.066Z,23.18
2018-11-07T17:49:23.192Z,23.17
2018-11-07T17:51:51.370Z,23.17
2018-11-07T17:54:19.513Z,23.18
2018-11-07T17:56:47.661Z,23.16
2018-11-07T17:59:15.815Z,23.16
2018-11-07T18:01:43.944Z,23.15
2018-11-07T18:04:12.541Z,23.15
2018-11-07T18:06:40.684Z,23.13
2018-11-07T18:09:09.295Z,23.13
2018-11-07T18:11:37.666Z,23.14
2018-11-07T18:14:06.257Z,23.13
2018-11-07T18:16:34.974Z,23.14
2018-11-07T18:19:03.266Z,23.13
2018-11-07T18:21:31.328Z,23.13
2018-11-07T18:23:59.541Z,23.12
2018-11-07T18:26:27.721Z,23.12
2018-11-07T18:28:55.824Z,23.11
2018-11-07T18:31:23.986Z,23.11
2018-11-07T18:33:52.098Z,23.10
2018-11-07T18:36:20.243Z,23.11
2018-11-07T18:38:48.448Z,23.09
2018-11-07T18:41:16.551Z,23.09
2018-11-07T18:43:45.150Z,23.09
2018-11-07T18:46:13.288Z,23.08
2018-11-07T18:48:41.483Z,23.09
2018-11-07T18:51:09.635Z,23.08
2018-11-07T18:53:37.817Z,23.08
2018-11-07T18:56:06.114Z,23.07
2018-11-07T18:58:34.373Z,23.07
2018-11-07T19:01:02.474Z,23.06
2018-11-07T19:03:30.618Z,23.07
2018-11-07T19:05:58.754Z,23.07
2018-11-07T19:08:27.006Z,23.06
2018-11-07T19:10:55.178Z,23.07
2018-11-07T19:13:23.334Z,23.06
2018-11-07T19:15:51.521Z,23.06
2018-11-07T19:18:19.747Z,23.05
2018-11-07T19:20:47.901Z,23.06
2018-11-07T19:23:16.068Z,23.05
2018-11-07T19:25:44.284Z,23.04
2018-11-07T19:28:12.409Z,23.05
2018-11-07T19:30:40.639Z,23.03
2018-11-07T19:33:09.544Z,23.03
2018-11-07T19:35:37.726Z,23.03
2018-11-07T19:38:05.837Z,23.04
2018-11-07T19:40:33.938Z,23.03
2018-11-07T19:43:02.167Z,23.03
2018-11-07T19:45:30.306Z,23.02
2018-11-07T19:47:58.445Z,23.02
2018-11-07T19:50:26.562Z,23.01
2018-11-07T19:52:54.697Z,23.01
2018-11-07T19:55:24.161Z,22.99
2018-11-07T19:58:00.725Z,22.99
2018-11-07T20:00:28.877Z,22.98
2018-11-07T20:02:57.071Z,23.01
2018-11-07T20:05:25.342Z,23.00
2018-11-07T20:07:53.516Z,23.00
2018-11-07T20:10:22.252Z,23.00
2018-11-07T20:12:50.367Z,22.98
2018-11-07T20:15:19.461Z,22.98
2018-11-07T20:17:47.979Z,22.98
2018-11-07T20:20:16.269Z,22.98
2018-11-07T20:22:44.545Z,22.98
2018-11-07T20:25:14.217Z,22.98
2018-11-07T20:27:43.302Z,22.97
2018-11-07T20:30:13.149Z,22.98
2018-11-07T20:32:41.549Z,22.96
2018-11-07T20:35:12.209Z,22.95
2018-11-07T20:37:40.396Z,22.95
2018-11-07T20:40:10.585Z,22.95
2018-11-07T20:42:39.010Z,22.94
2018-11-07T20:45:07.891Z,22.94
2018-11-07T20:47:36.200Z,22.94
2018-11-07T20:50:05.011Z,22.93
2018-11-07T20:52:33.248Z,22.93
2018-11-07T20:55:01.496Z,22.93
2018-11-07T20:57:29.612Z,22.93
2018-11-07T20:59:57.900Z,22.92
2018-11-07T21:02:26.118Z,22.91
2018-11-07T21:04:54.288Z,22.91
2018-11-07T21:07:22.478Z,22.90
2018-11-07T21:09:50.671Z,22.91
2018-11-07T21:12:18.871Z,22.88
2018-11-07T21:14:47.049Z,22.88
2018-11-07T21:17:15.861Z,22.88
2018-11-07T21:19:44.047Z,22.88
2018-11-07T21:22:12.862Z,22.87
2018-11-07T21:24:40.972Z,22.86
2018-11-07T21:27:09.292Z,22.86
2018-11-07T21:29:37.436Z,22.86
2018-11-07T21:32:06.306Z,22.85
2018-11-07T21:34:34.661Z,22.85
2018-11-07T21:37:02.927Z,22.83
2018-11-07T21:39:33.230Z,22.83
2018-11-07T21:42:02.100Z,22.82
2018-11-07T21:44:30.281Z,22.84
2018-11-07T21:46:58.419Z,22.82
2018-11-07T21:49:26.643Z,22.82
2018-11-07T21:51:54.810Z,22.81
2018-11-07T21:54:24.312Z,22.80
2018-11-07T21:56:52.481Z,22.79
2018-11-07T21:59:20.673Z,22.79
2018-11-07T22:01:48.835Z,22.79
2018-11-07T22:04:17.012Z,22.78
2018-11-07T22:06:45.147Z,22.78
2018-11-07T22:09:13.338Z,22.79
2018-11-07T22:11:41.482Z,22.77
2018-11-07T22:14:09.698Z,22.77
2018-11-07T22:16:38.597Z,22.76
2018-11-07T22:19:07.372Z,22.75
2018-11-07T22:21:35.777Z,22.74
2018-11-07T22:24:04.205Z,22.74
2018-11-07T22:26:32.294Z,22.73
2018-11-07T22:29:00.472Z,22.74
2018-11-07T22:31:28.687Z,22.73
2018-11-07T22:33:56.789Z,22.72
2018-11-07T22:36:24.933Z,22.72
2018-11-07T22:38:53.083Z,22.71
2018-11-07T22:41:21.202Z,22.70
2018-11-07T22:43:49.339Z,22.70
2018-11-07T22:46:17.521Z,22.69
2018-11-07T22:48:45.654Z,22.69
2018-11-07T22:51:13.789Z,22.69
2018-11-07T22:53:41.972Z,22.67
2018-11-07T22:56:10.203Z,22.67
2018-11-07T22:58:38.329Z,22.67
2018-11-07T23:01:16.659Z,22.66
2018-11-07T23:03:45.796Z,22.65
2018-11-07T23:06:13.844Z,22.63
2018-11-07T23:08:41.981Z,22.63
2018-11-07T23:11:10.125Z,22.61
2018-11-07T23:13:38.339Z,22.62
2018-11-07T23:16:06.466Z,22.62
2018-11-07T23:18:34.643Z,22.61
2018-11-07T23:21:02.790Z,22.61
2018-11-07T23:23:30.925Z,22.61
2018-11-07T23:25:59.101Z,22.60
2018-11-07T23:28:27.224Z,22.52
2018-11-07T23:30:55.370Z,22.59
2018-11-07T23:33:24.518Z,22.58
2018-11-07T23:35:52.638Z,22.58
2018-11-07T23:38:20.830Z,22.59
2018-11-07T23:40:49.009Z,22.57
2018-11-07T23:43:17.120Z,22.56
2018-11-07T23:45:45.298Z,22.55
2018-11-07T23:48:13.451Z,22.55
2018-11-07T23:50:41.585Z,22.54
2018-11-07T23:53:09.704Z,22.54
2018-11-07T23:55:37.966Z,22.53
2018-11-07T23:58:06.081Z,22.52
